sensor_id;sensor_type;location;lat;lon;timestamp;pressure;altitude;pressure_sealevel;temperature
71807;BMP280;59655;42.590;23.364;2024-03-02T00:00:49;90843.56;;;8.06
71807;BMP280;59655;42.590;23.364;2024-03-02T00:03:15;90850.25;;;8.07
71807;BMP280;59655;42.590;23.364;2024-03-02T00:05:40;90844.81;;;8.05
71807;BMP280;59655;42.590;23.364;2024-03-02T00:08:06;90846.19;;;8.13
71807;BMP280;59655;42.590;23.364;2024-03-02T00:10:39;90844.75;;;8.20
71807;BMP280;59655;42.590;23.364;2024-03-02T00:13:08;90843.69;;;8.23
71807;BMP280;59655;42.590;23.364;2024-03-02T00:15:41;90837.19;;;8.24
71807;BMP280;59655;42.590;23.364;2024-03-02T00:18:10;90833.13;;;8.23
71807;BMP280;59655;42.590;23.364;2024-03-02T00:20:36;90831.38;;;8.18
71807;BMP280;59655;42.590;23.364;2024-03-02T00:23:06;90834.41;;;8.14
71807;BMP280;59655;42.590;23.364;2024-03-02T00:25:43;90834.19;;;8.20
71807;BMP280;59655;42.590;23.364;2024-03-02T00:28:36;90823.63;;;8.20
71807;BMP280;59655;42.590;23.364;2024-03-02T00:31:02;90825.19;;;8.23
71807;BMP280;59655;42.590;23.364;2024-03-02T00:33:36;90831.34;;;8.26
71807;BMP280;59655;42.590;23.364;2024-03-02T00:36:03;90816.72;;;8.32
71807;BMP280;59655;42.590;23.364;2024-03-02T00:38:30;90828.66;;;8.33
71807;BMP280;59655;42.590;23.364;2024-03-02T00:40:57;90827.97;;;8.33
71807;BMP280;59655;42.590;23.364;2024-03-02T00:45:57;90818.66;;;8.32
71807;BMP280;59655;42.590;23.364;2024-03-02T00:48:23;90807.75;;;8.28
71807;BMP280;59655;42.590;23.364;2024-03-02T00:50:52;90816.75;;;8.25
71807;BMP280;59655;42.590;23.364;2024-03-02T00:53:23;90810.38;;;8.28
71807;BMP280;59655;42.590;23.364;2024-03-02T00:55:50;90817.75;;;8.29
71807;BMP280;59655;42.590;23.364;2024-03-02T00:58:15;90808.44;;;8.36
71807;BMP280;59655;42.590;23.364;2024-03-02T01:00:40;90803.16;;;8.36
71807;BMP280;59655;42.590;23.364;2024-03-02T01:03:06;90804.53;;;8.37
71807;BMP280;59655;42.590;23.364;2024-03-02T01:05:33;90808.44;;;8.36
71807;BMP280;59655;42.590;23.364;2024-03-02T01:07:58;90813.88;;;8.38
71807;BMP280;59655;42.590;23.364;2024-03-02T01:10:23;90808.06;;;8.40
71807;BMP280;59655;42.590;23.364;2024-03-02T01:12:51;90803.47;;;8.40
71807;BMP280;59655;42.590;23.364;2024-03-02T01:15:16;90805.97;;;8.38
71807;BMP280;59655;42.590;23.364;2024-03-02T01:17:41;90796.63;;;8.29
71807;BMP280;59655;42.590;23.364;2024-03-02T01:20:08;90793.59;;;8.41
71807;BMP280;59655;42.590;23.364;2024-03-02T01:22:34;90783.72;;;8.41
71807;BMP280;59655;42.590;23.364;2024-03-02T01:25:01;90796.78;;;8.39
71807;BMP280;59655;42.590;23.364;2024-03-02T01:27:26;90784.81;;;8.38
71807;BMP280;59655;42.590;23.364;2024-03-02T01:29:52;90799.38;;;8.47
71807;BMP280;59655;42.590;23.364;2024-03-02T01:32:17;90784.66;;;8.36
71807;BMP280;59655;42.590;23.364;2024-03-02T01:34:43;90781.66;;;8.32
71807;BMP280;59655;42.590;23.364;2024-03-02T01:37:08;90782.00;;;8.36
71807;BMP280;59655;42.590;23.364;2024-03-02T01:39:35;90786.75;;;8.37
71807;BMP280;59655;42.590;23.364;2024-03-02T01:42:00;90788.84;;;8.39
71807;BMP280;59655;42.590;23.364;2024-03-02T01:44:26;90784.66;;;8.36
71807;BMP280;59655;42.590;23.364;2024-03-02T01:46:51;90775.47;;;8.37
71807;BMP280;59655;42.590;23.364;2024-03-02T01:49:16;90777.59;;;8.38
71807;BMP280;59655;42.590;23.364;2024-03-02T01:51:42;90776.38;;;8.32
71807;BMP280;59655;42.590;23.364;2024-03-02T01:54:07;90772.13;;;8.36
71807;BMP280;59655;42.590;23.364;2024-03-02T01:56:33;90776.34;;;8.40
71807;BMP280;59655;42.590;23.364;2024-03-02T01:58:58;90775.94;;;8.43
71807;BMP280;59655;42.590;23.364;2024-03-02T02:01:24;90777.53;;;8.46
71807;BMP280;59655;42.590;23.364;2024-03-02T02:03:49;90774.72;;;8.44
71807;BMP280;59655;42.590;23.364;2024-03-02T02:06:15;90779.16;;;8.42
71807;BMP280;59655;42.590;23.364;2024-03-02T02:08:40;90782.34;;;8.40
71807;BMP280;59655;42.590;23.364;2024-03-02T02:11:06;90771.28;;;8.26
71807;BMP280;59655;42.590;23.364;2024-03-02T02:13:31;90772.66;;;8.35
71807;BMP280;59655;42.590;23.364;2024-03-02T02:16:05;90770.91;;;8.30
71807;BMP280;59655;42.590;23.364;2024-03-02T02:18:30;90765.28;;;8.26
71807;BMP280;59655;42.590;23.364;2024-03-02T02:20:56;90770.91;;;8.30
71807;BMP280;59655;42.590;23.364;2024-03-02T02:23:21;90772.66;;;8.35
71807;BMP280;59655;42.590;23.364;2024-03-02T02:25:46;90758.03;;;8.34
71807;BMP280;59655;42.590;23.364;2024-03-02T02:28:12;90769.00;;;8.23
71807;BMP280;59655;42.590;23.364;2024-03-02T02:30:37;90773.25;;;8.18
71807;BMP280;59655;42.590;23.364;2024-03-02T02:33:02;90772.22;;;8.13
71807;BMP280;59655;42.590;23.364;2024-03-02T02:35:28;90770.06;;;8.20
71807;BMP280;59655;42.590;23.364;2024-03-02T02:37:55;90775.69;;;8.24
71807;BMP280;59655;42.590;23.364;2024-03-02T02:40:21;90769.19;;;8.25
71807;BMP280;59655;42.590;23.364;2024-03-02T02:42:47;90764.28;;;8.13
71807;BMP280;59655;42.590;23.364;2024-03-02T02:45:13;90772.56;;;8.17
71807;BMP280;59655;42.590;23.364;2024-03-02T02:47:40;90773.44;;;8.20
71807;BMP280;59655;42.590;23.364;2024-03-02T02:50:09;90769.19;;;8.25
71807;BMP280;59655;42.590;23.364;2024-03-02T02:52:36;90770.56;;;8.26
71807;BMP280;59655;42.590;23.364;2024-03-02T02:55:04;90778.50;;;8.26
71807;BMP280;59655;42.590;23.364;2024-03-02T02:57:29;90772.56;;;8.17
71807;BMP280;59655;42.590;23.364;2024-03-02T02:59:56;90769.22;;;8.17
71807;BMP280;59655;42.590;23.364;2024-03-02T03:02:22;90777.31;;;8.11
71807;BMP280;59655;42.590;23.364;2024-03-02T03:04:47;90769.03;;;8.15
71807;BMP280;59655;42.590;23.364;2024-03-02T03:07:13;90774.28;;;8.23
71807;BMP280;59655;42.590;23.364;2024-03-02T03:09:38;90767.41;;;8.20
71807;BMP280;59655;42.590;23.364;2024-03-02T03:12:04;90766.72;;;8.19
71807;BMP280;59655;42.590;23.364;2024-03-02T03:14:30;90764.81;;;8.12
71807;BMP280;59655;42.590;23.364;2024-03-02T03:16:56;90768.72;;;8.03
71807;BMP280;59655;42.590;23.364;2024-03-02T03:19:21;90766.25;;;8.05
71807;BMP280;59655;42.590;23.364;2024-03-02T03:21:46;90767.81;;;8.08
71807;BMP280;59655;42.590;23.364;2024-03-02T03:24:12;90772.22;;;8.13
71807;BMP280;59655;42.590;23.364;2024-03-02T03:26:37;90766.94;;;8.13
71807;BMP280;59655;42.590;23.364;2024-03-02T03:29:02;90772.91;;;8.14
71807;BMP280;59655;42.590;23.364;2024-03-02T03:31:29;90771.50;;;8.13
71807;BMP280;59655;42.590;23.364;2024-03-02T03:33:56;90771.88;;;8.09
71807;BMP280;59655;42.590;23.364;2024-03-02T03:36:22;90767.44;;;8.12
71807;BMP280;59655;42.590;23.364;2024-03-02T03:38:48;90763.41;;;8.19
71807;BMP280;59655;42.590;23.364;2024-03-02T03:41:13;90772.38;;;8.15
71807;BMP280;59655;42.590;23.364;2024-03-02T03:43:38;90775.72;;;8.16
71807;BMP280;59655;42.590;23.364;2024-03-02T03:46:04;90766.91;;;8.21
71807;BMP280;59655;42.590;23.364;2024-03-02T03:48:29;90763.91;;;8.25
71807;BMP280;59655;42.590;23.364;2024-03-02T03:50:56;90772.53;;;8.25
71807;BMP280;59655;42.590;23.364;2024-03-02T03:53:21;90771.81;;;8.25
71807;BMP280;59655;42.590;23.364;2024-03-02T03:55:47;90764.25;;;8.21
71807;BMP280;59655;42.590;23.364;2024-03-02T03:58:14;90767.59;;;8.22
71807;BMP280;59655;42.590;23.364;2024-03-02T04:00:41;90768.31;;;8.22
71807;BMP280;59655;42.590;23.364;2024-03-02T04:03:07;90768.84;;;8.21
71807;BMP280;59655;42.590;23.364;2024-03-02T04:05:32;90772.91;;;8.14
71807;BMP280;59655;42.590;23.364;2024-03-02T04:07:57;90772.91;;;8.14
71807;BMP280;59655;42.590;23.364;2024-03-02T04:10:23;90777.84;;;8.17
71807;BMP280;59655;42.590;23.364;2024-03-02T04:12:49;90771.16;;;8.16
71807;BMP280;59655;42.590;23.364;2024-03-02T04:15:16;90779.94;;;8.19
71807;BMP280;59655;42.590;23.364;2024-03-02T04:17:44;90774.69;;;8.11
71807;BMP280;59655;42.590;23.364;2024-03-02T04:20:10;90776.97;;;8.15
71807;BMP280;59655;42.590;23.364;2024-03-02T04:22:37;90768.53;;;8.16
71807;BMP280;59655;42.590;23.364;2024-03-02T04:25:03;90775.03;;;8.15
71807;BMP280;59655;42.590;23.364;2024-03-02T04:27:30;90777.28;;;8.19
71807;BMP280;59655;42.590;23.364;2024-03-02T04:29:56;90779.56;;;8.23
71807;BMP280;59655;42.590;23.364;2024-03-02T04:32:21;90777.63;;;8.23
71807;BMP280;59655;42.590;23.364;2024-03-02T04:34:47;90789.44;;;8.22
71807;BMP280;59655;42.590;23.364;2024-03-02T04:37:12;90783.09;;;8.25
71807;BMP280;59655;42.590;23.364;2024-03-02T04:39:39;90777.09;;;8.25
71807;BMP280;59655;42.590;23.364;2024-03-02T04:42:04;90786.25;;;8.24
71807;BMP280;59655;42.590;23.364;2024-03-02T04:44:30;90785.22;;;8.19
71807;BMP280;59655;42.590;23.364;2024-03-02T04:46:55;90778.75;;;8.12
71807;BMP280;59655;42.590;23.364;2024-03-02T04:49:20;90787.00;;;8.16
71807;BMP280;59655;42.590;23.364;2024-03-02T04:51:46;90787.38;;;8.13
71807;BMP280;59655;42.590;23.364;2024-03-02T04:54:11;90786.28;;;8.08
71807;BMP280;59655;42.590;23.364;2024-03-02T04:56:36;90793.91;;;8.04
71807;BMP280;59655;42.590;23.364;2024-03-02T04:59:15;90790.38;;;8.02
71807;BMP280;59655;42.590;23.364;2024-03-02T05:01:41;90788.09;;;7.98
71807;BMP280;59655;42.590;23.364;2024-03-02T05:04:07;90786.19;;;7.91
71807;BMP280;59655;42.590;23.364;2024-03-02T05:06:32;90793.94;;;7.81
71807;BMP280;59655;42.590;23.364;2024-03-02T05:08:57;90790.59;;;7.88
71807;BMP280;59655;42.590;23.364;2024-03-02T05:11:23;90786.91;;;7.91
71807;BMP280;59655;42.590;23.364;2024-03-02T05:14:10;90782.66;;;7.88
71807;BMP280;59655;42.590;23.364;2024-03-02T05:16:35;90790.25;;;7.84
71807;BMP280;59655;42.590;23.364;2024-03-02T05:19:03;90790.75;;;7.90
71807;BMP280;59655;42.590;23.364;2024-03-02T05:21:30;90788.31;;;7.85
71807;BMP280;59655;42.590;23.364;2024-03-02T05:23:56;90798.50;;;7.88
71807;BMP280;59655;42.590;23.364;2024-03-02T05:26:21;90792.19;;;7.76
71807;BMP280;59655;42.590;23.364;2024-03-02T05:28:47;90800.50;;;7.72
71807;BMP280;59655;42.590;23.364;2024-03-02T05:31:17;90807.72;;;7.72
71807;BMP280;59655;42.590;23.364;2024-03-02T05:33:43;90807.16;;;7.81
71807;BMP280;59655;42.590;23.364;2024-03-02T05:36:09;90811.72;;;7.81
71807;BMP280;59655;42.590;23.364;2024-03-02T05:38:34;90817.88;;;7.83
71807;BMP280;59655;42.590;23.364;2024-03-02T05:41:00;90823.56;;;7.72
71807;BMP280;59655;42.590;23.364;2024-03-02T05:43:25;90824.94;;;7.81
71807;BMP280;59655;42.590;23.364;2024-03-02T05:45:51;90834.28;;;7.82
71807;BMP280;59655;42.590;23.364;2024-03-02T05:48:16;90825.28;;;7.85
71807;BMP280;59655;42.590;23.364;2024-03-02T05:50:41;90826.34;;;7.89
71807;BMP280;59655;42.590;23.364;2024-03-02T05:53:07;90827.38;;;7.86
71807;BMP280;59655;42.590;23.364;2024-03-02T05:55:32;90828.44;;;7.91
71807;BMP280;59655;42.590;23.364;2024-03-02T05:57:58;90831.06;;;7.91
71807;BMP280;59655;42.590;23.364;2024-03-02T06:00:23;90833.00;;;7.90
71807;BMP280;59655;42.590;23.364;2024-03-02T06:02:49;90828.25;;;7.89
71807;BMP280;59655;42.590;23.364;2024-03-02T06:05:15;90832.50;;;7.92
71807;BMP280;59655;42.590;23.364;2024-03-02T06:07:41;90832.31;;;7.90
71807;BMP280;59655;42.590;23.364;2024-03-02T06:10:07;90835.13;;;7.92
71807;BMP280;59655;42.590;23.364;2024-03-02T06:12:34;90834.44;;;7.91
71807;BMP280;59655;42.590;23.364;2024-03-02T06:14:59;90834.06;;;7.95
71807;BMP280;59655;42.590;23.364;2024-03-02T06:17:24;90837.78;;;7.92
71807;BMP280;59655;42.590;23.364;2024-03-02T06:19:50;90826.13;;;7.95
71807;BMP280;59655;42.590;23.364;2024-03-02T06:22:15;90840.22;;;7.97
71807;BMP280;59655;42.590;23.364;2024-03-02T06:24:41;90830.19;;;7.96
71807;BMP280;59655;42.590;23.364;2024-03-02T06:27:09;90831.41;;;7.95
71807;BMP280;59655;42.590;23.364;2024-03-02T06:29:34;90839.31;;;8.03
71807;BMP280;59655;42.590;23.364;2024-03-02T06:32:00;90838.97;;;8.06
71807;BMP280;59655;42.590;23.364;2024-03-02T06:34:25;90847.94;;;8.11
71807;BMP280;59655;42.590;23.364;2024-03-02T06:36:51;90843.38;;;8.11
71807;BMP280;59655;42.590;23.364;2024-03-02T06:39:16;90839.50;;;8.12
71807;BMP280;59655;42.590;23.364;2024-03-02T06:41:41;90847.78;;;8.09
71807;BMP280;59655;42.590;23.364;2024-03-02T06:44:08;90860.09;;;8.14
71807;BMP280;59655;42.590;23.364;2024-03-02T06:46:33;90851.66;;;8.08
71807;BMP280;59655;42.590;23.364;2024-03-02T06:48:58;90850.75;;;8.13
71807;BMP280;59655;42.590;23.364;2024-03-02T06:51:24;90851.63;;;8.15
71807;BMP280;59655;42.590;23.364;2024-03-02T06:53:49;90846.53;;;8.17
71807;BMP280;59655;42.590;23.364;2024-03-02T06:56:15;90851.81;;;8.10
71807;BMP280;59655;42.590;23.364;2024-03-02T06:58:40;90849.16;;;8.10
71807;BMP280;59655;42.590;23.364;2024-03-02T07:01:05;90852.34;;;8.08
71807;BMP280;59655;42.590;23.364;2024-03-02T07:03:31;90847.44;;;8.12
71807;BMP280;59655;42.590;23.364;2024-03-02T07:05:57;90856.06;;;8.13
71807;BMP280;59655;42.590;23.364;2024-03-02T07:08:23;90859.88;;;8.20
71807;BMP280;59655;42.590;23.364;2024-03-02T07:10:48;90856.91;;;8.15
71807;BMP280;59655;42.590;23.364;2024-03-02T07:13:14;90857.28;;;8.12
71807;BMP280;59655;42.590;23.364;2024-03-02T07:15:39;90861.69;;;8.09
71807;BMP280;59655;42.590;23.364;2024-03-02T07:18:37;90858.16;;;8.14
71807;BMP280;59655;42.590;23.364;2024-03-02T07:21:07;90860.44;;;8.10
71807;BMP280;59655;42.590;23.364;2024-03-02T07:23:32;90860.97;;;8.09
71807;BMP280;59655;42.590;23.364;2024-03-02T07:25:58;90865.72;;;8.10
71807;BMP280;59655;42.590;23.364;2024-03-02T07:28:25;90864.88;;;8.08
71807;BMP280;59655;42.590;23.364;2024-03-02T07:31:01;90866.97;;;8.17
71807;BMP280;59655;42.590;23.364;2024-03-02T07:33:26;90866.97;;;8.17
71807;BMP280;59655;42.590;23.364;2024-03-02T07:35:53;90861.00;;;8.16
71807;BMP280;59655;42.590;23.364;2024-03-02T07:38:19;90860.25;;;8.24
71807;BMP280;59655;42.590;23.364;2024-03-02T07:40:44;90870.47;;;8.27
71807;BMP280;59655;42.590;23.364;2024-03-02T07:43:10;90867.97;;;8.29
71807;BMP280;59655;42.590;23.364;2024-03-02T07:45:35;90869.94;;;8.29
71807;BMP280;59655;42.590;23.364;2024-03-02T07:48:01;90877.00;;;8.19
71807;BMP280;59655;42.590;23.364;2024-03-02T07:50:29;90876.47;;;8.20
71807;BMP280;59655;42.590;23.364;2024-03-02T07:52:55;90881.03;;;8.27
71807;BMP280;59655;42.590;23.364;2024-03-02T07:55:20;90881.38;;;8.24
71807;BMP280;59655;42.590;23.364;2024-03-02T07:57:46;90876.44;;;8.28
71807;BMP280;59655;42.590;23.364;2024-03-02T08:00:11;90875.38;;;8.31
71807;BMP280;59655;42.590;23.364;2024-03-02T08:02:37;90879.44;;;8.32
71807;BMP280;59655;42.590;23.364;2024-03-02T08:05:05;90888.44;;;8.29
71807;BMP280;59655;42.590;23.364;2024-03-02T08:07:31;90886.13;;;8.33
71807;BMP280;59655;42.590;23.364;2024-03-02T08:09:59;90890.69;;;8.32
71807;BMP280;59655;42.590;23.364;2024-03-02T08:12:26;90893.00;;;8.36
71807;BMP280;59655;42.590;23.364;2024-03-02T08:14:54;90890.88;;;8.34
71807;BMP280;59655;42.590;23.364;2024-03-02T08:17:20;90896.84;;;8.35
71807;BMP280;59655;42.590;23.364;2024-03-02T08:19:45;90891.22;;;8.38
71807;BMP280;59655;42.590;23.364;2024-03-02T08:22:11;90888.59;;;8.38
71807;BMP280;59655;42.590;23.364;2024-03-02T08:24:37;90889.28;;;8.39
71807;BMP280;59655;42.590;23.364;2024-03-02T08:27:02;90890.34;;;8.36
71807;BMP280;59655;42.590;23.364;2024-03-02T08:29:28;90887.84;;;8.46
71807;BMP280;59655;42.590;23.364;2024-03-02T08:31:54;90886.09;;;8.48
71807;BMP280;59655;42.590;23.364;2024-03-02T08:34:19;90889.78;;;8.53
71807;BMP280;59655;42.590;23.364;2024-03-02T08:36:46;90892.22;;;8.58
71807;BMP280;59655;42.590;23.364;2024-03-02T08:39:11;90884.28;;;8.58
71807;BMP280;59655;42.590;23.364;2024-03-02T08:41:41;90887.97;;;8.63
71807;BMP280;59655;42.590;23.364;2024-03-02T08:44:08;90893.44;;;8.65
71807;BMP280;59655;42.590;23.364;2024-03-02T08:46:34;90891.50;;;8.66
71807;BMP280;59655;42.590;23.364;2024-03-02T08:48:59;90893.25;;;8.71
71807;BMP280;59655;42.590;23.364;2024-03-02T08:51:25;90889.31;;;8.79
71807;BMP280;59655;42.590;23.364;2024-03-02T08:53:50;90885.94;;;8.87
71807;BMP280;59655;42.590;23.364;2024-03-02T08:56:15;90887.53;;;8.82
71807;BMP280;59655;42.590;23.364;2024-03-02T08:58:41;90885.41;;;8.88
71807;BMP280;59655;42.590;23.364;2024-03-02T09:01:06;90890.88;;;8.90
71807;BMP280;59655;42.590;23.364;2024-03-02T09:03:35;90885.59;;;8.90
71807;BMP280;59655;42.590;23.364;2024-03-02T09:06:01;90892.78;;;8.97
71807;BMP280;59655;42.590;23.364;2024-03-02T09:08:26;90893.97;;;9.04
71807;BMP280;59655;42.590;23.364;2024-03-02T09:10:52;90890.44;;;9.09
71807;BMP280;59655;42.590;23.364;2024-03-02T09:13:18;90891.97;;;9.12
71807;BMP280;59655;42.590;23.364;2024-03-02T09:15:44;90900.59;;;9.20
71807;BMP280;59655;42.590;23.364;2024-03-02T09:18:10;90896.31;;;9.25
71807;BMP280;59655;42.590;23.364;2024-03-02T09:20:35;90899.97;;;9.30
71807;BMP280;59655;42.590;23.364;2024-03-02T09:23:00;90896.50;;;9.27
71807;BMP280;59655;42.590;23.364;2024-03-02T09:25:26;90904.75;;;9.31
71807;BMP280;59655;42.590;23.364;2024-03-02T09:27:51;90901.41;;;9.31
71807;BMP280;59655;42.590;23.364;2024-03-02T09:30:17;90906.88;;;9.33
71807;BMP280;59655;42.590;23.364;2024-03-02T09:32:45;90902.28;;;9.33
71807;BMP280;59655;42.590;23.364;2024-03-02T09:35:10;90904.22;;;9.33
71807;BMP280;59655;42.590;23.364;2024-03-02T09:37:37;90906.97;;;9.17
71807;BMP280;59655;42.590;23.364;2024-03-02T09:40:02;90902.84;;;9.24
71807;BMP280;59655;42.590;23.364;2024-03-02T09:42:29;90906.75;;;9.23
71807;BMP280;59655;42.590;23.364;2024-03-02T09:44:54;90915.91;;;9.22
71807;BMP280;59655;42.590;23.364;2024-03-02T09:47:20;90905.31;;;9.22
71807;BMP280;59655;42.590;23.364;2024-03-02T09:49:45;90906.44;;;9.19
71807;BMP280;59655;42.590;23.364;2024-03-02T09:52:13;90900.03;;;9.22
71807;BMP280;59655;42.590;23.364;2024-03-02T09:54:39;90908.69;;;9.22
71807;BMP280;59655;42.590;23.364;2024-03-02T09:57:05;90904.31;;;9.17
71807;BMP280;59655;42.590;23.364;2024-03-02T09:59:30;90903.22;;;9.20
71807;BMP280;59655;42.590;23.364;2024-03-02T10:02:00;90909.28;;;9.13
71807;BMP280;59655;42.590;23.364;2024-03-02T10:04:27;90905.06;;;9.10
71807;BMP280;59655;42.590;23.364;2024-03-02T10:07:15;90910.66;;;9.14
71807;BMP280;59655;42.590;23.364;2024-03-02T10:09:41;90903.63;;;9.17
71807;BMP280;59655;42.590;23.364;2024-03-02T10:12:08;90907.19;;;9.04
71807;BMP280;59655;42.590;23.364;2024-03-02T10:14:34;90903.69;;;9.01
71807;BMP280;59655;42.590;23.364;2024-03-02T10:17:04;90902.97;;;9.01
71807;BMP280;59655;42.590;23.364;2024-03-02T10:19:30;90906.31;;;9.09
71807;BMP280;59655;42.590;23.364;2024-03-02T10:22:00;90909.13;;;9.03
71807;BMP280;59655;42.590;23.364;2024-03-02T10:24:26;90909.13;;;9.03
71807;BMP280;59655;42.590;23.364;2024-03-02T10:26:52;90909.78;;;9.12
71807;BMP280;59655;42.590;23.364;2024-03-02T10:29:18;90901.84;;;9.12
71807;BMP280;59655;42.590;23.364;2024-03-02T10:31:44;90895.34;;;9.13
71807;BMP280;59655;42.590;23.364;2024-03-02T10:34:11;90900.63;;;9.13
71807;BMP280;59655;42.590;23.364;2024-03-02T10:36:37;90900.13;;;9.07
71807;BMP280;59655;42.590;23.364;2024-03-02T10:39:06;90900.13;;;9.07
71807;BMP280;59655;42.590;23.364;2024-03-02T10:41:33;90901.03;;;9.09
71807;BMP280;59655;42.590;23.364;2024-03-02T10:44:06;90899.44;;;9.06
71807;BMP280;59655;42.590;23.364;2024-03-02T10:46:33;90906.50;;;9.03
71807;BMP280;59655;42.590;23.364;2024-03-02T10:49:00;90903.31;;;9.05
71807;BMP280;59655;42.590;23.364;2024-03-02T10:51:27;90898.97;;;8.92
71807;BMP280;59655;42.590;23.364;2024-03-02T10:53:54;90895.34;;;8.80
71807;BMP280;59655;42.590;23.364;2024-03-02T10:56:28;90897.81;;;8.78
71807;BMP280;59655;42.590;23.364;2024-03-02T10:59:06;90892.28;;;8.84
71807;BMP280;59655;42.590;23.364;2024-03-02T11:01:38;90889.16;;;8.77
71807;BMP280;59655;42.590;23.364;2024-03-02T11:04:04;90890.56;;;8.78
71807;BMP280;59655;42.590;23.364;2024-03-02T11:06:33;90891.28;;;8.79
71807;BMP280;59655;42.590;23.364;2024-03-02T11:09:06;90884.03;;;8.79
71807;BMP280;59655;42.590;23.364;2024-03-02T11:11:37;90882.47;;;8.76
71807;BMP280;59655;42.590;23.364;2024-03-02T11:14:04;90891.44;;;8.73
71807;BMP280;59655;42.590;23.364;2024-03-02T11:16:37;90889.69;;;8.76
71807;BMP280;59655;42.590;23.364;2024-03-02T11:19:14;90886.69;;;8.72
71807;BMP280;59655;42.590;23.364;2024-03-02T11:21:40;90885.31;;;8.71
71807;BMP280;59655;42.590;23.364;2024-03-02T11:26:46;90886.53;;;8.70
71807;BMP280;59655;42.590;23.364;2024-03-02T11:32:13;90881.78;;;8.68
71807;BMP280;59655;42.590;23.364;2024-03-02T11:34:43;90877.22;;;8.69
71807;BMP280;59655;42.590;23.364;2024-03-02T11:37:12;90882.34;;;8.67
71807;BMP280;59655;42.590;23.364;2024-03-02T11:39:41;90882.00;;;8.63
71807;BMP280;59655;42.590;23.364;2024-03-02T11:42:07;90881.13;;;8.60
71807;BMP280;59655;42.590;23.364;2024-03-02T11:44:36;90882.19;;;8.57
71807;BMP280;59655;42.590;23.364;2024-03-02T11:47:05;90885.00;;;8.59
71807;BMP280;59655;42.590;23.364;2024-03-02T11:49:38;90889.94;;;8.55
71807;BMP280;59655;42.590;23.364;2024-03-02T11:52:05;90885.88;;;8.54
71807;BMP280;59655;42.590;23.364;2024-03-02T11:54:32;90888.00;;;8.55
71807;BMP280;59655;42.590;23.364;2024-03-02T11:57:04;90884.66;;;8.55
71807;BMP280;59655;42.590;23.364;2024-03-02T11:59:29;90877.41;;;8.63
71807;BMP280;59655;42.590;23.364;2024-03-02T12:01:55;90886.16;;;8.73
71807;BMP280;59655;42.590;23.364;2024-03-02T12:04:21;90885.81;;;8.77
71807;BMP280;59655;42.590;23.364;2024-03-02T12:06:54;90879.13;;;8.68
71807;BMP280;59655;42.590;23.364;2024-03-02T12:09:20;90892.56;;;8.63
71807;BMP280;59655;42.590;23.364;2024-03-02T12:11:46;90884.13;;;8.56
71807;BMP280;59655;42.590;23.364;2024-03-02T12:14:12;90876.72;;;8.55
71807;BMP280;59655;42.590;23.364;2024-03-02T12:16:44;90891.16;;;8.54
71807;BMP280;59655;42.590;23.364;2024-03-02T12:19:09;90892.03;;;8.56
71807;BMP280;59655;42.590;23.364;2024-03-02T12:21:35;90889.41;;;8.56
71807;BMP280;59655;42.590;23.364;2024-03-02T12:24:01;90885.84;;;8.62
71807;BMP280;59655;42.590;23.364;2024-03-02T12:26:27;90896.81;;;8.58
71807;BMP280;59655;42.590;23.364;2024-03-02T12:28:53;90895.06;;;8.53
71807;BMP280;59655;42.590;23.364;2024-03-02T12:31:19;90892.41;;;8.53
71807;BMP280;59655;42.590;23.364;2024-03-02T12:33:44;90889.94;;;8.55
71807;BMP280;59655;42.590;23.364;2024-03-02T12:36:10;90892.03;;;8.56
71807;BMP280;59655;42.590;23.364;2024-03-02T12:38:37;90882.19;;;8.57
71807;BMP280;59655;42.590;23.364;2024-03-02T12:41:03;90889.78;;;8.53
71807;BMP280;59655;42.590;23.364;2024-03-02T12:43:31;90891.53;;;8.58
71807;BMP280;59655;42.590;23.364;2024-03-02T12:45:57;90892.59;;;8.55
71807;BMP280;59655;42.590;23.364;2024-03-02T12:48:23;90898.22;;;8.59
71807;BMP280;59655;42.590;23.364;2024-03-02T12:50:49;90897.50;;;8.58
71807;BMP280;59655;42.590;23.364;2024-03-02T12:53:15;90898.41;;;8.53
71807;BMP280;59655;42.590;23.364;2024-03-02T12:55:41;90894.69;;;8.56
71807;BMP280;59655;42.590;23.364;2024-03-02T12:58:07;90897.16;;;8.54
71807;BMP280;59655;42.590;23.364;2024-03-02T13:00:32;90899.44;;;8.58
71807;BMP280;59655;42.590;23.364;2024-03-02T13:03:00;90901.88;;;8.64
71807;BMP280;59655;42.590;23.364;2024-03-02T13:05:31;90893.97;;;8.64
71807;BMP280;59655;42.590;23.364;2024-03-02T13:07:58;90890.63;;;8.63
71807;BMP280;59655;42.590;23.364;2024-03-02T13:10:24;90883.72;;;8.68
71807;BMP280;59655;42.590;23.364;2024-03-02T13:12:50;90893.06;;;8.69
71807;BMP280;59655;42.590;23.364;2024-03-02T13:15:15;90898.53;;;8.63
71807;BMP280;59655;42.590;23.364;2024-03-02T13:17:40;90901.88;;;8.64
71807;BMP280;59655;42.590;23.364;2024-03-02T13:20:06;90905.22;;;8.64
71807;BMP280;59655;42.590;23.364;2024-03-02T13:22:33;90908.78;;;8.67
71807;BMP280;59655;42.590;23.364;2024-03-02T13:24:58;90907.34;;;8.66
71807;BMP280;59655;42.590;23.364;2024-03-02T13:27:25;90898.53;;;8.71
71807;BMP280;59655;42.590;23.364;2024-03-02T13:29:50;90898.16;;;8.74
71807;BMP280;59655;42.590;23.364;2024-03-02T13:32:16;90896.75;;;8.73
71807;BMP280;59655;42.590;23.364;2024-03-02T13:34:42;90903.97;;;8.73
71807;BMP280;59655;42.590;23.364;2024-03-02T13:37:08;90898.00;;;8.72
71807;BMP280;59655;42.590;23.364;2024-03-02T13:39:33;90903.09;;;8.78
71807;BMP280;59655;42.590;23.364;2024-03-02T13:42:06;90912.78;;;8.75
71807;BMP280;59655;42.590;23.364;2024-03-02T13:44:33;90908.91;;;8.76
71807;BMP280;59655;42.590;23.364;2024-03-02T13:46:59;90914.38;;;8.78
71807;BMP280;59655;42.590;23.364;2024-03-02T13:49:25;90914.53;;;8.80
71807;BMP280;59655;42.590;23.364;2024-03-02T13:51:58;90924.44;;;8.80
71807;BMP280;59655;42.590;23.364;2024-03-02T13:54:25;90917.50;;;8.85
71807;BMP280;59655;42.590;23.364;2024-03-02T13:56:52;90913.09;;;8.87
71807;BMP280;59655;42.590;23.364;2024-03-02T13:59:17;90913.44;;;8.84
71807;BMP280;59655;42.590;23.364;2024-03-02T14:01:43;90920.72;;;8.75
71807;BMP280;59655;42.590;23.364;2024-03-02T14:04:09;90928.47;;;8.73
71807;BMP280;59655;42.590;23.364;2024-03-02T14:06:35;90927.44;;;8.76
71807;BMP280;59655;42.590;23.364;2024-03-02T14:09:00;90923.00;;;8.79
71807;BMP280;59655;42.590;23.364;2024-03-02T14:11:25;90922.31;;;8.78
71807;BMP280;59655;42.590;23.364;2024-03-02T14:13:51;90925.66;;;8.79